Time;durP1;ratioP1;P1;durP2;ratioP2;P2;SDS_P1;SDS_P2;PMS_P1;PMS_P2;Temp;Humidity;BMP_temperature;BMP_pressure;BME280_temperature;BME280_humidity;BME280_pressure;Samples;Min_cycle;Max_cycle;Signal;HPM_P1;HPM_P2
2021/09/02 00:00:30;;;;;;;64.40;7.82;;;;;;;;;;5033512;28;20115;-72
2021/09/02 00:02:56;;;;;;;6.32;4.40;;;;;;;;;;5032217;28;20026;-72
2021/09/02 00:05:22;;;;;;;8.05;4.50;;;;;;;;;;5033207;28;20113;-72
2021/09/02 00:07:49;;;;;;;7.80;4.70;;;;;;;;;;5034035;28;20100;-72
2021/09/02 00:10:15;;;;;;;7.93;5.03;;;;;;;;;;5033826;28;20083;-72
2021/09/02 00:12:41;;;;;;;11.07;4.72;;;;;;;;;;5033697;28;20056;-72
2021/09/02 00:15:08;;;;;;;8.50;4.95;;;;;;;;;;5031477;28;20057;-72
2021/09/02 00:17:34;;;;;;;10.82;5.00;;;;;;;;;;5031533;28;20028;-72
2021/09/02 00:20:00;;;;;;;8.77;5.15;;;;;;;;;;5033728;28;20112;-72
2021/09/02 00:22:27;;;;;;;8.90;5.20;;;;;;;;;;5033551;28;20137;-72
2021/09/02 00:24:53;;;;;;;8.63;4.95;;;;;;;;;;5033688;28;20021;-72
2021/09/02 00:27:19;;;;;;;7.25;4.72;;;;;;;;;;5031945;28;20409;-72
2021/09/02 00:29:45;;;;;;;8.32;4.70;;;;;;;;;;5031606;28;20474;-72
2021/09/02 00:32:11;;;;;;;9.40;5.05;;;;;;;;;;5033094;28;20104;-72
2021/09/02 00:34:37;;;;;;;8.45;5.22;;;;;;;;;;5032271;28;20025;-72
2021/09/02 00:37:04;;;;;;;8.43;5.10;;;;;;;;;;5033561;28;20480;-72
2021/09/02 00:39:29;;;;;;;8.43;5.07;;;;;;;;;;5032866;28;20037;-72
2021/09/02 00:41:55;;;;;;;7.75;5.10;;;;;;;;;;5031853;28;20029;-72
2021/09/02 00:44:38;;;;;;;9.25;5.20;;;;;;;;;;5032972;28;20087;-72
2021/09/02 00:47:09;;;;;;;8.45;4.97;;;;;;;;;;5033313;28;20485;-71
2021/09/02 00:49:37;;;;;;;12.32;5.32;;;;;;;;;;5033362;28;20168;-72
2021/09/02 00:52:13;;;;;;;7.95;5.03;;;;;;;;;;5033428;28;20230;-72
2021/09/02 00:54:43;;;;;;;9.02;5.30;;;;;;;;;;5017228;28;20560;-72
2021/09/02 00:57:10;;;;;;;10.07;5.13;;;;;;;;;;5030247;28;20112;-72
2021/09/02 00:59:36;;;;;;;10.10;5.63;;;;;;;;;;5032034;28;20042;-72
2021/09/02 01:02:02;;;;;;;7.55;5.05;;;;;;;;;;5034175;28;20032;-72
2021/09/02 01:04:28;;;;;;;9.40;5.38;;;;;;;;;;5036630;28;20026;-72
2021/09/02 01:06:54;;;;;;;9.00;4.82;;;;;;;;;;5033347;28;20045;-72
2021/09/02 01:09:20;;;;;;;8.25;4.72;;;;;;;;;;5032127;28;20430;-71
2021/09/02 01:11:46;;;;;;;7.20;4.50;;;;;;;;;;5036215;28;20035;-72
2021/09/02 01:14:16;;;;;;;8.95;5.00;;;;;;;;;;5035035;28;20445;-72
2021/09/02 01:16:43;;;;;;;9.73;5.18;;;;;;;;;;5036626;28;20033;-71
2021/09/02 01:19:09;;;;;;;9.10;5.22;;;;;;;;;;5041231;28;20029;-72
2021/09/02 01:21:35;;;;;;;9.95;5.15;;;;;;;;;;5036699;28;20025;-72
2021/09/02 01:24:01;;;;;;;8.55;4.78;;;;;;;;;;5030315;28;20095;-72
2021/09/02 01:26:27;;;;;;;7.75;5.15;;;;;;;;;;5036135;28;20497;-72
2021/09/02 01:28:53;;;;;;;8.10;5.20;;;;;;;;;;5035855;28;20037;-72
2021/09/02 01:31:20;;;;;;;8.98;5.25;;;;;;;;;;5036012;28;20071;-72
2021/09/02 01:33:47;;;;;;;9.68;5.15;;;;;;;;;;5035011;28;20090;-72
2021/09/02 01:36:13;;;;;;;7.68;5.30;;;;;;;;;;5034272;28;20075;-72
2021/09/02 01:38:39;;;;;;;11.65;5.65;;;;;;;;;;5036176;28;20442;-72
2021/09/02 01:41:05;;;;;;;7.95;4.88;;;;;;;;;;5035943;28;20025;-71
2021/09/02 01:43:31;;;;;;;7.10;4.85;;;;;;;;;;5035487;28;20090;-72
2021/09/02 01:45:57;;;;;;;10.02;5.32;;;;;;;;;;5034820;28;20104;-72
2021/09/02 01:48:23;;;;;;;7.30;4.90;;;;;;;;;;5034424;28;20136;-71
2021/09/02 01:50:49;;;;;;;9.40;5.20;;;;;;;;;;5035096;28;20120;-72
2021/09/02 01:53:18;;;;;;;9.70;5.47;;;;;;;;;;5034607;28;20036;-71
2021/09/02 01:55:44;;;;;;;7.30;4.95;;;;;;;;;;5035795;28;20033;-72
2021/09/02 01:58:10;;;;;;;7.75;5.22;;;;;;;;;;5035506;28;20017;-72
2021/09/02 02:00:36;;;;;;;11.98;5.97;;;;;;;;;;5035808;28;20510;-72
2021/09/02 02:03:02;;;;;;;7.97;5.45;;;;;;;;;;5033452;28;20083;-72
2021/09/02 02:05:29;;;;;;;8.27;5.30;;;;;;;;;;5035680;28;20033;-72
2021/09/02 02:07:55;;;;;;;8.10;5.18;;;;;;;;;;5035713;28;20084;-72
2021/09/02 02:10:22;;;;;;;8.65;5.30;;;;;;;;;;5035486;28;20033;-72
2021/09/02 02:12:49;;;;;;;8.40;5.78;;;;;;;;;;5034600;28;20383;-72
2021/09/02 02:15:15;;;;;;;9.55;5.32;;;;;;;;;;5033498;28;20049;-72
2021/09/02 02:17:42;;;;;;;8.20;5.20;;;;;;;;;;5035188;28;20029;-72
2021/09/02 02:20:09;;;;;;;7.88;5.40;;;;;;;;;;5035074;28;20501;-72
2021/09/02 02:22:35;;;;;;;9.60;5.45;;;;;;;;;;5035440;28;20105;-72
2021/09/02 02:25:01;;;;;;;8.95;5.00;;;;;;;;;;5033636;28;20036;-72
2021/09/02 02:27:27;;;;;;;7.22;4.88;;;;;;;;;;5032759;28;20045;-71
2021/09/02 02:29:53;;;;;;;10.55;5.30;;;;;;;;;;5034068;28;20052;-71
2021/09/02 02:32:19;;;;;;;7.93;5.22;;;;;;;;;;5033925;28;20053;-72
2021/09/02 02:34:45;;;;;;;156.98;19.38;;;;;;;;;;5034850;28;20083;-62
2021/09/02 02:37:11;;;;;;;49.72;10.90;;;;;;;;;;5035175;28;20028;-62
2021/09/02 02:39:40;;;;;;;9.60;4.60;;;;;;;;;;5035037;28;20044;-62
2021/09/02 02:42:06;;;;;;;11.63;6.95;;;;;;;;;;5032213;28;20029;-62
2021/09/02 02:44:33;;;;;;;9.75;5.03;;;;;;;;;;5033329;28;20032;-62
2021/09/02 02:46:59;;;;;;;9.27;5.32;;;;;;;;;;5034489;28;20378;-62
2021/09/02 02:49:25;;;;;;;7.57;4.80;;;;;;;;;;5034987;28;20060;-62
2021/09/02 02:51:52;;;;;;;7.07;4.70;;;;;;;;;;5033224;28;20097;-62
2021/09/02 02:54:18;;;;;;;6.57;4.05;;;;;;;;;;5032527;28;20075;-62
2021/09/02 02:56:44;;;;;;;7.78;4.47;;;;;;;;;;5034754;28;20507;-62
2021/09/02 02:59:10;;;;;;;8.32;4.32;;;;;;;;;;5034442;28;20071;-62
2021/09/02 03:01:36;;;;;;;8.75;4.50;;;;;;;;;;5034640;28;20029;-62
2021/09/02 03:04:02;;;;;;;7.55;4.50;;;;;;;;;;5033269;28;20108;-62
2021/09/02 03:06:28;;;;;;;7.30;4.10;;;;;;;;;;5033060;28;20025;-62
2021/09/02 03:08:54;;;;;;;8.73;4.60;;;;;;;;;;5032872;28;20583;-62
2021/09/02 03:11:20;;;;;;;7.25;4.78;;;;;;;;;;5033124;28;20026;-62
2021/09/02 03:13:46;;;;;;;8.75;5.10;;;;;;;;;;5034545;28;20469;-62
2021/09/02 03:16:12;;;;;;;8.77;4.47;;;;;;;;;;5034388;28;20026;-62
2021/09/02 03:18:38;;;;;;;8.48;4.18;;;;;;;;;;5034044;28;20029;-62
2021/09/02 03:21:04;;;;;;;10.00;4.45;;;;;;;;;;5031848;28;20370;-62
2021/09/02 03:23:30;;;;;;;7.25;4.40;;;;;;;;;;5041805;28;20116;-62
2021/09/02 03:25:56;;;;;;;8.00;4.53;;;;;;;;;;5028676;28;20111;-62
2021/09/02 03:28:22;;;;;;;9.45;4.78;;;;;;;;;;5034327;28;20095;-62
2021/09/02 03:30:48;;;;;;;8.18;4.30;;;;;;;;;;5032467;28;20420;-62
2021/09/02 03:33:14;;;;;;;7.25;4.55;;;;;;;;;;5031641;28;20037;-47
2021/09/02 03:35:40;;;;;;;6.60;4.38;;;;;;;;;;5033157;28;20444;-47
2021/09/02 03:38:07;;;;;;;8.60;4.53;;;;;;;;;;5033549;28;20025;-50
2021/09/02 03:40:33;;;;;;;6.97;4.68;;;;;;;;;;5032320;28;20061;-50
2021/09/02 03:42:59;;;;;;;7.10;4.35;;;;;;;;;;5033540;28;20508;-48
2021/09/02 03:45:25;;;;;;;6.63;4.50;;;;;;;;;;5031814;28;20041;-49
2021/09/02 03:47:51;;;;;;;7.70;4.32;;;;;;;;;;5032716;28;20370;-49
2021/09/02 03:50:18;;;;;;;8.40;4.28;;;;;;;;;;5033639;28;20072;-48
2021/09/02 03:52:44;;;;;;;6.35;4.35;;;;;;;;;;5033101;28;20030;-51
2021/09/02 03:55:11;;;;;;;9.88;4.60;;;;;;;;;;5033603;28;20029;-62
2021/09/02 03:57:37;;;;;;;7.80;4.72;;;;;;;;;;5031058;28;20021;-62
2021/09/02 04:00:04;;;;;;;9.50;4.45;;;;;;;;;;5031132;28;20041;-62
2021/09/02 04:02:30;;;;;;;7.97;4.65;;;;;;;;;;5032506;28;20508;-62
2021/09/02 04:04:56;;;;;;;7.55;4.72;;;;;;;;;;5031861;28;20437;-61
2021/09/02 04:07:22;;;;;;;7.65;4.45;;;;;;;;;;5033526;28;20095;-62
2021/09/02 04:09:48;;;;;;;6.75;4.57;;;;;;;;;;5032326;28;20030;-62
2021/09/02 04:12:14;;;;;;;7.68;4.80;;;;;;;;;;5031197;28;20488;-62
2021/09/02 04:14:40;;;;;;;7.22;4.68;;;;;;;;;;5033279;28;20037;-62
2021/09/02 04:17:06;;;;;;;7.90;4.80;;;;;;;;;;5033684;28;20068;-62
2021/09/02 04:19:32;;;;;;;7.55;4.90;;;;;;;;;;5033309;28;20079;-62
2021/09/02 04:21:58;;;;;;;8.45;4.78;;;;;;;;;;5032107;28;20030;-62
2021/09/02 04:24:26;;;;;;;7.15;4.82;;;;;;;;;;5030561;28;20049;-62
2021/09/02 04:26:52;;;;;;;8.07;4.72;;;;;;;;;;5032217;28;20057;-62
2021/09/02 04:29:18;;;;;;;7.60;5.20;;;;;;;;;;5032318;28;20468;-62
2021/09/02 04:31:44;;;;;;;7.72;4.80;;;;;;;;;;5033252;28;20056;-62
2021/09/02 04:34:10;;;;;;;6.97;4.85;;;;;;;;;;5033161;28;20677;-62
2021/09/02 04:36:36;;;;;;;8.48;4.72;;;;;;;;;;5035864;28;20030;-62
2021/09/02 04:39:02;;;;;;;8.55;4.97;;;;;;;;;;5034124;28;20033;-62
2021/09/02 04:41:28;;;;;;;8.27;4.70;;;;;;;;;;5036892;28;20096;-62
2021/09/02 04:43:54;;;;;;;66.03;9.45;;;;;;;;;;5037055;28;20076;-62
2021/09/02 04:46:20;;;;;;;7.47;5.03;;;;;;;;;;5037515;28;20068;-62
2021/09/02 04:48:46;;;;;;;7.32;4.80;;;;;;;;;;5035768;28;20025;-62
2021/09/02 04:51:12;;;;;;;7.50;4.80;;;;;;;;;;5033820;28;20120;-62
2021/09/02 04:53:38;;;;;;;10.13;4.60;;;;;;;;;;5034953;28;20133;-62
2021/09/02 04:56:04;;;;;;;7.75;4.55;;;;;;;;;;5036857;28;20026;-62
2021/09/02 04:58:30;;;;;;;11.68;4.57;;;;;;;;;;5035388;28;20393;-61
2021/09/02 05:00:56;;;;;;;7.55;4.57;;;;;;;;;;5034600;28;20056;-62
2021/09/02 05:03:22;;;;;;;6.85;4.60;;;;;;;;;;5034794;28;20469;-61
2021/09/02 05:05:48;;;;;;;9.85;4.70;;;;;;;;;;5034161;28;20138;-61
2021/09/02 05:08:14;;;;;;;7.00;4.72;;;;;;;;;;5035147;28;20484;-62
2021/09/02 05:10:40;;;;;;;6.57;4.70;;;;;;;;;;5036864;28;20030;-62
2021/09/02 05:13:06;;;;;;;11.45;4.70;;;;;;;;;;5035319;28;20492;-62
2021/09/02 05:15:32;;;;;;;9.90;4.88;;;;;;;;;;5036126;28;20489;-62
2021/09/02 05:17:58;;;;;;;6.72;4.47;;;;;;;;;;5033000;28;20076;-62
2021/09/02 05:20:24;;;;;;;8.63;4.63;;;;;;;;;;5036496;28;20072;-62
2021/09/02 05:22:50;;;;;;;9.23;5.88;;;;;;;;;;5036396;28;20026;-62
2021/09/02 05:25:16;;;;;;;0.35;0.20;;;;;;;;;;5034763;28;20029;-62
2021/09/02 05:27:42;;;;;;;0.28;0.28;;;;;;;;;;5034481;28;20045;-62
2021/09/02 05:30:10;;;;;;;0.43;0.43;;;;;;;;;;5034151;28;20034;-61
2021/09/02 05:32:36;;;;;;;;;;;;;;;;;;5035136;28;20032;-61
2021/09/02 05:35:03;;;;;;;0.00;0.00;;;;;;;;;;5036024;28;19916;-62
2021/09/02 05:37:29;;;;;;;5.50;2.80;;;;;;;;;;5033106;28;20029;-62
2021/09/02 05:39:55;;;;;;;8.85;2.83;;;;;;;;;;5031585;28;20571;-62
2021/09/02 05:42:21;;;;;;;5.90;2.97;;;;;;;;;;5033795;28;20021;-62
2021/09/02 05:44:47;;;;;;;10.55;3.60;;;;;;;;;;5035864;28;20105;-62
2021/09/02 05:47:13;;;;;;;7.57;3.42;;;;;;;;;;5032846;28;20026;-63
2021/09/02 05:49:39;;;;;;;6.60;3.03;;;;;;;;;;5035569;28;20037;-62
2021/09/02 05:52:05;;;;;;;5.65;2.80;;;;;;;;;;5035986;28;20022;-62
2021/09/02 05:54:31;;;;;;;6.88;2.97;;;;;;;;;;5035353;28;20642;-62
2021/09/02 05:56:57;;;;;;;5.72;2.90;;;;;;;;;;5032589;28;20222;-62
2021/09/02 05:59:23;;;;;;;4.40;2.95;;;;;;;;;;5035804;28;20868;-62
2021/09/02 06:01:49;;;;;;;6.40;3.33;;;;;;;;;;5034252;28;20025;-63
2021/09/02 06:04:15;;;;;;;8.82;3.03;;;;;;;;;;5035030;28;20193;-63
2021/09/02 06:06:41;;;;;;;4.60;2.70;;;;;;;;;;5036095;28;20017;-62
2021/09/02 06:09:07;;;;;;;5.10;2.70;;;;;;;;;;5017282;28;20522;-63
2021/09/02 06:11:34;;;;;;;20.55;3.35;;;;;;;;;;5023593;28;20417;-63
2021/09/02 06:14:00;;;;;;;5.82;3.13;;;;;;;;;;5030409;28;20547;-62
2021/09/02 06:16:26;;;;;;;5.55;2.80;;;;;;;;;;5031018;28;20167;-62
2021/09/02 06:18:52;;;;;;;3.80;2.53;;;;;;;;;;5039854;28;20507;-62
2021/09/02 06:21:18;;;;;;;4.35;2.75;;;;;;;;;;5031876;28;20044;-63
2021/09/02 06:23:44;;;;;;;6.43;3.20;;;;;;;;;;5031962;28;20116;-62
2021/09/02 06:26:10;;;;;;;4.90;2.78;;;;;;;;;;5033103;28;20076;-63
2021/09/02 06:28:36;;;;;;;6.78;2.83;;;;;;;;;;5033588;28;20076;-61
2021/09/02 06:31:02;;;;;;;4.53;2.70;;;;;;;;;;5043471;28;20021;-62
2021/09/02 06:33:28;;;;;;;5.78;2.88;;;;;;;;;;5032276;28;20207;-63
2021/09/02 06:35:54;;;;;;;4.68;3.03;;;;;;;;;;5031768;28;20109;-63
2021/09/02 06:38:20;;;;;;;5.30;2.70;;;;;;;;;;5036043;28;20044;-63
2021/09/02 06:40:46;;;;;;;3.95;2.50;;;;;;;;;;5033393;28;20077;-63
2021/09/02 06:43:12;;;;;;;6.05;3.05;;;;;;;;;;5033898;28;20018;-61
2021/09/02 06:45:38;;;;;;;5.22;2.78;;;;;;;;;;5034164;28;20031;-62
2021/09/02 06:48:04;;;;;;;7.97;3.08;;;;;;;;;;5031727;28;20030;-63
2021/09/02 06:50:30;;;;;;;4.70;2.67;;;;;;;;;;5035842;28;20124;-62
2021/09/02 06:52:56;;;;;;;4.70;2.67;;;;;;;;;;5032990;28;20025;-62
2021/09/02 06:55:22;;;;;;;5.28;2.60;;;;;;;;;;5032080;28;20393;-62
2021/09/02 06:57:48;;;;;;;4.32;3.10;;;;;;;;;;5032723;28;20118;-62
2021/09/02 07:00:14;;;;;;;3.70;2.17;;;;;;;;;;5025688;28;20052;-62
2021/09/02 07:02:40;;;;;;;5.30;2.80;;;;;;;;;;5006313;28;20087;-62
2021/09/02 07:05:07;;;;;;;6.63;2.55;;;;;;;;;;5030621;28;20496;-62
2021/09/02 07:07:33;;;;;;;4.07;2.33;;;;;;;;;;5033716;28;20091;-62
2021/09/02 07:09:59;;;;;;;6.60;2.42;;;;;;;;;;5034681;28;20029;-62
2021/09/02 07:12:25;;;;;;;4.22;2.70;;;;;;;;;;5043972;28;20041;-62
2021/09/02 07:14:51;;;;;;;6.10;2.53;;;;;;;;;;5032457;28;20030;-62
2021/09/02 07:17:17;;;;;;;5.50;2.40;;;;;;;;;;5031721;28;20028;-63
2021/09/02 07:19:43;;;;;;;3.88;2.60;;;;;;;;;;5032152;28;20370;-62
2021/09/02 07:22:09;;;;;;;3.13;2.03;;;;;;;;;;5030405;28;20025;-62
2021/09/02 07:24:35;;;;;;;7.30;3.17;;;;;;;;;;5044690;28;20041;-62
2021/09/02 07:27:03;;;;;;;5.18;2.78;;;;;;;;;;5032531;28;20068;-62
2021/09/02 07:29:29;;;;;;;5.95;3.03;;;;;;;;;;5031382;28;20025;-61
2021/09/02 07:31:55;;;;;;;4.95;2.70;;;;;;;;;;5031362;28;20037;-62
2021/09/02 07:34:21;;;;;;;6.80;2.60;;;;;;;;;;5031342;28;20108;-62
2021/09/02 07:36:47;;;;;;;3.55;1.83;;;;;;;;;;5031849;28;20052;-62
2021/09/02 07:39:14;;;;;;;2.85;1.70;;;;;;;;;;5029875;28;20073;-62
2021/09/02 07:41:41;;;;;;;3.07;1.67;;;;;;;;;;5042096;28;20055;-61
2021/09/02 07:44:07;;;;;;;1.17;1.02;;;;;;;;;;5034672;28;20388;-61
2021/09/02 07:46:33;;;;;;;2.05;0.88;;;;;;;;;;5033102;28;20033;-61
2021/09/02 07:48:59;;;;;;;3.22;1.33;;;;;;;;;;5033198;28;20026;-61
2021/09/02 07:51:25;;;;;;;1.27;0.98;;;;;;;;;;5029361;28;20092;-61
2021/09/02 07:53:51;;;;;;;1.58;1.00;;;;;;;;;;5030763;28;20389;-61
2021/09/02 07:56:18;;;;;;;2.97;1.10;;;;;;;;;;5032849;28;20025;-61
2021/09/02 07:58:44;;;;;;;1.45;1.00;;;;;;;;;;5023618;28;20033;-61
2021/09/02 08:01:12;;;;;;;2.40;1.23;;;;;;;;;;5032488;28;20467;-61
2021/09/02 08:03:38;;;;;;;0.43;0.32;;;;;;;;;;5032650;28;20040;-61
2021/09/02 08:06:04;;;;;;;0.47;0.47;;;;;;;;;;5031174;28;20480;-61
2021/09/02 08:08:31;;;;;;;6.75;1.33;;;;;;;;;;5040887;28;20017;-61
2021/09/02 08:10:57;;;;;;;9.93;3.30;;;;;;;;;;5030255;28;20468;-62
2021/09/02 08:13:23;;;;;;;4.85;3.25;;;;;;;;;;5036318;28;20435;-62
2021/09/02 08:15:49;;;;;;;14.85;3.15;;;;;;;;;;5033870;28;20025;-62
2021/09/02 08:18:15;;;;;;;5.60;2.90;;;;;;;;;;5034569;28;20018;-62
2021/09/02 08:20:41;;;;;;;4.45;2.80;;;;;;;;;;5037495;28;20397;-62
2021/09/02 08:23:07;;;;;;;51.28;5.65;;;;;;;;;;5038791;28;20021;-62
2021/09/02 08:25:34;;;;;;;39.22;6.88;;;;;;;;;;5036468;28;20041;-62
2021/09/02 08:28:00;;;;;;;380.65;35.75;;;;;;;;;;5033986;28;20076;-62
2021/09/02 08:30:26;;;;;;;3.60;2.10;;;;;;;;;;5035747;28;20092;-62
2021/09/02 08:32:53;;;;;;;2.60;1.83;;;;;;;;;;5035131;28;20036;-62
2021/09/02 08:35:22;;;;;;;4.35;2.05;;;;;;;;;;5036528;28;20477;-62
2021/09/02 08:37:49;;;;;;;5.18;2.20;;;;;;;;;;5040074;28;20510;-62
2021/09/02 08:40:18;;;;;;;3.72;1.95;;;;;;;;;;5043428;28;20033;-62
2021/09/02 08:42:45;;;;;;;2.55;1.80;;;;;;;;;;5036446;28;20044;-62
2021/09/02 08:45:11;;;;;;;2.47;1.77;;;;;;;;;;5034255;28;20053;-62
2021/09/02 08:47:37;;;;;;;6.63;2.20;;;;;;;;;;5037342;28;20430;-62
2021/09/02 08:50:07;;;;;;;3.50;1.90;;;;;;;;;;5039883;28;20091;-61
2021/09/02 08:52:33;;;;;;;2.53;1.63;;;;;;;;;;5040558;28;20017;-62
2021/09/02 08:54:59;;;;;;;3.53;2.08;;;;;;;;;;5034564;28;20037;-61
2021/09/02 08:57:25;;;;;;;7.47;1.98;;;;;;;;;;5033890;28;20057;-62
2021/09/02 08:59:51;;;;;;;2.97;1.80;;;;;;;;;;5034393;28;20083;-61
2021/09/02 09:02:25;;;;;;;3.42;2.00;;;;;;;;;;5036953;28;20037;-62
2021/09/02 09:05:00;;;;;;;2.75;1.98;;;;;;;;;;5036066;28;20478;-61
2021/09/02 09:07:33;;;;;;;10.85;2.22;;;;;;;;;;5030518;28;20439;-62
2021/09/02 09:09:59;;;;;;;3.10;1.95;;;;;;;;;;5024721;28;21070;-61
2021/09/02 09:12:39;;;;;;;3.60;2.20;;;;;;;;;;5026898;28;20053;-62
2021/09/02 09:15:06;;;;;;;3.78;2.03;;;;;;;;;;5029021;28;20033;-61
2021/09/02 09:17:32;;;;;;;3.95;2.13;;;;;;;;;;5036499;28;20029;-61
2021/09/02 09:19:59;;;;;;;3.92;2.40;;;;;;;;;;5034550;28;20041;-63
2021/09/02 09:22:27;;;;;;;3.20;2.05;;;;;;;;;;5040903;28;20060;-62
2021/09/02 09:24:56;;;;;;;4.22;2.45;;;;;;;;;;5048633;28;20461;-62
2021/09/02 09:27:22;;;;;;;5.10;2.60;;;;;;;;;;5033000;28;20064;-62
2021/09/02 09:30:08;;;;;;;4.47;2.50;;;;;;;;;;5033741;28;20363;-62
2021/09/02 09:32:40;;;;;;;7.45;2.38;;;;;;;;;;5034806;28;20520;-62
2021/09/02 09:35:13;;;;;;;7.35;2.42;;;;;;;;;;5034374;28;20092;-62
2021/09/02 09:37:39;;;;;;;4.90;2.42;;;;;;;;;;5031951;28;20031;-61
2021/09/02 09:40:31;;;;;;;5.85;2.92;;;;;;;;;;5034134;28;20558;-63
2021/09/02 09:42:57;;;;;;;4.57;2.50;;;;;;;;;;5032695;28;20056;-62
2021/09/02 09:45:37;;;;;;;4.57;2.42;;;;;;;;;;5032952;28;20540;-61
2021/09/02 09:48:03;;;;;;;2.85;2.22;;;;;;;;;;5021152;28;20638;-61
2021/09/02 09:50:29;;;;;;;7.57;2.97;;;;;;;;;;5035658;28;20026;-63
2021/09/02 09:52:55;;;;;;;5.22;2.58;;;;;;;;;;5038639;28;20511;-60
2021/09/02 09:55:21;;;;;;;5.00;2.80;;;;;;;;;;5034938;28;20026;-62
2021/09/02 09:57:47;;;;;;;4.47;2.58;;;;;;;;;;5036413;28;20045;-63
2021/09/02 10:00:17;;;;;;;5.72;2.53;;;;;;;;;;5032581;28;20520;-62
2021/09/02 10:02:44;;;;;;;5.60;3.08;;;;;;;;;;5034610;28;20036;-62
2021/09/02 10:05:11;;;;;;;5.13;2.70;;;;;;;;;;5035298;28;20500;-62
2021/09/02 10:07:38;;;;;;;6.28;2.53;;;;;;;;;;5035628;28;20493;-62
2021/09/02 10:10:05;;;;;;;4.13;2.60;;;;;;;;;;5045862;28;20029;-62
2021/09/02 10:12:34;;;;;;;6.70;3.08;;;;;;;;;;5046547;28;20120;-62
2021/09/02 10:15:03;;;;;;;4.40;2.58;;;;;;;;;;5032234;28;20079;-62
2021/09/02 10:17:30;;;;;;;5.22;2.50;;;;;;;;;;5032917;28;20057;-63
2021/09/02 10:19:56;;;;;;;4.18;2.60;;;;;;;;;;5032015;28;20381;-61
2021/09/02 10:22:22;;;;;;;4.70;2.75;;;;;;;;;;5026286;28;20032;-61
2021/09/02 10:24:49;;;;;;;6.10;2.60;;;;;;;;;;5030178;28;20041;-61
2021/09/02 10:27:18;;;;;;;3.95;2.28;;;;;;;;;;5032282;28;20520;-60
2021/09/02 10:29:45;;;;;;;3.63;2.50;;;;;;;;;;5035367;28;20025;-61
2021/09/02 10:32:23;;;;;;;4.87;2.57;;;;;;;;;;5033518;28;20122;-61
2021/09/02 10:34:51;;;;;;;6.38;2.85;;;;;;;;;;5028853;28;20270;-61
2021/09/02 10:37:32;;;;;;;4.80;2.83;;;;;;;;;;5032397;28;20112;-71
2021/09/02 10:39:58;;;;;;;5.18;2.83;;;;;;;;;;5029293;28;20084;-71
2021/09/02 10:42:43;;;;;;;2.75;1.73;;;;;;;;;;5024452;28;20493;-71
2021/09/02 10:45:30;;;;;;;2.10;1.60;;;;;;;;;;5022589;28;20330;-71
2021/09/02 10:47:56;;;;;;;2.85;1.90;;;;;;;;;;5034627;28;20372;-70
2021/09/02 10:50:23;;;;;;;2.10;1.30;;;;;;;;;;5040381;28;20025;-62
2021/09/02 10:52:50;;;;;;;3.65;2.35;;;;;;;;;;5035999;28;20044;-62
2021/09/02 10:55:28;;;;;;;4.18;2.42;;;;;;;;;;5025720;28;20596;-62
2021/09/02 10:57:54;;;;;;;2.80;1.70;;;;;;;;;;5022569;28;20412;-62
2021/09/02 11:00:39;;;;;;;2.30;1.90;;;;;;;;;;5034568;28;20033;-62
2021/09/02 11:03:14;;;;;;;1.75;1.50;;;;;;;;;;5027265;28;20018;-64
2021/09/02 11:05:43;;;;;;;2.45;1.75;;;;;;;;;;5032806;28;20033;-63
2021/09/02 11:08:10;;;;;;;3.60;2.30;;;;;;;;;;5032759;28;20373;-71
2021/09/02 11:10:36;;;;;;;2.78;1.83;;;;;;;;;;5035651;28;20846;-72
2021/09/02 11:13:03;;;;;;;2.90;1.83;;;;;;;;;;5045877;28;20330;-72
2021/09/02 11:15:29;;;;;;;3.13;1.45;;;;;;;;;;5032564;28;20056;-72
2021/09/02 11:17:59;;;;;;;2.72;1.65;;;;;;;;;;5035457;28;20021;-72
2021/09/02 11:20:27;;;;;;;1.83;1.55;;;;;;;;;;5040592;28;20134;-72
2021/09/02 11:23:06;;;;;;;3.33;1.73;;;;;;;;;;5037153;28;20025;-72
2021/09/02 11:25:39;;;;;;;6.72;1.70;;;;;;;;;;5033370;28;20028;-71
2021/09/02 11:28:05;;;;;;;2.17;1.77;;;;;;;;;;5032956;28;20047;-72
2021/09/02 11:30:33;;;;;;;3.88;1.58;;;;;;;;;;5036222;28;20041;-72
2021/09/02 11:33:00;;;;;;;3.10;1.95;;;;;;;;;;5031841;28;20481;-72
2021/09/02 11:35:27;;;;;;;2.30;1.85;;;;;;;;;;5030597;28;20033;-72
2021/09/02 11:37:52;;;;;;;3.42;2.15;;;;;;;;;;5036139;28;20039;-72
2021/09/02 11:40:23;;;;;;;2.75;1.88;;;;;;;;;;5042730;28;20120;-72
2021/09/02 11:42:50;;;;;;;3.15;1.75;;;;;;;;;;5030947;28;20411;-72
2021/09/02 11:45:17;;;;;;;3.40;2.10;;;;;;;;;;5029925;28;20029;-72
2021/09/02 11:47:43;;;;;;;2.33;1.70;;;;;;;;;;5034639;28;20091;-72
2021/09/02 11:50:09;;;;;;;2.60;1.73;;;;;;;;;;5040497;28;20029;-71
2021/09/02 11:52:46;;;;;;;2.63;1.58;;;;;;;;;;5038643;28;20167;-72
2021/09/02 11:55:13;;;;;;;5.78;2.42;;;;;;;;;;5032902;28;20037;-72
2021/09/02 11:57:39;;;;;;;2.33;1.63;;;;;;;;;;5025096;28;20049;-71
2021/09/02 12:00:06;;;;;;;4.07;1.88;;;;;;;;;;5033957;28;20428;-72
2021/09/02 12:02:32;;;;;;;3.25;2.05;;;;;;;;;;5032820;28;20033;-71
2021/09/02 12:04:58;;;;;;;6.53;2.13;;;;;;;;;;5032694;28;20370;-71
2021/09/02 12:07:24;;;;;;;5.60;2.08;;;;;;;;;;5032701;28;20029;-72
2021/09/02 12:09:50;;;;;;;2.95;1.85;;;;;;;;;;5031768;28;20060;-72
2021/09/02 12:12:32;;;;;;;4.15;2.08;;;;;;;;;;5032423;28;20017;-72
2021/09/02 12:14:58;;;;;;;4.32;2.00;;;;;;;;;;5030600;28;20030;-72
2021/09/02 12:17:36;;;;;;;2.78;1.70;;;;;;;;;;5023657;28;20041;-72
2021/09/02 12:20:03;;;;;;;3.20;1.95;;;;;;;;;;5032106;28;20038;-72
2021/09/02 12:22:29;;;;;;;;;;;;;;;;;;5033409;28;20029;-71
2021/09/02 12:25:06;;;;;;;3.03;2.00;;;;;;;;;;5029948;28;19924;-72
2021/09/02 12:27:42;;;;;;;2.55;1.75;;;;;;;;;;5031574;28;20084;-71
2021/09/02 12:30:08;;;;;;;2.80;1.70;;;;;;;;;;5026794;28;20104;-72
2021/09/02 12:32:34;;;;;;;5.43;1.92;;;;;;;;;;5030531;28;20156;-72
2021/09/02 12:35:10;;;;;;;3.17;2.08;;;;;;;;;;5032168;28;20513;-72
2021/09/02 12:37:38;;;;;;;2.80;1.80;;;;;;;;;;5031230;28;20389;-72
2021/09/02 12:40:04;;;;;;;2.40;1.70;;;;;;;;;;5031853;28;20037;-72
2021/09/02 12:42:30;;;;;;;2.47;1.50;;;;;;;;;;5044029;28;20014;-72
2021/09/02 12:45:27;;;;;;;4.65;2.08;;;;;;;;;;5026170;28;20142;-72
2021/09/02 12:48:00;;;;;;;2.65;1.70;;;;;;;;;;5020275;28;20042;-72
2021/09/02 12:50:28;;;;;;;3.25;2.10;;;;;;;;;;5030919;28;20033;-72
2021/09/02 12:52:54;;;;;;;4.18;1.75;;;;;;;;;;5029792;28;20036;-72
2021/09/02 12:55:20;;;;;;;2.83;1.63;;;;;;;;;;5031700;28;20350;-72
2021/09/02 12:58:07;;;;;;;3.70;1.83;;;;;;;;;;5035364;28;20024;-72
2021/09/02 13:00:33;;;;;;;;;;;;;;;;;;5035306;28;20167;-72
2021/09/02 13:03:06;;;;;;;5.95;1.73;;;;;;;;;;5037517;28;19931;-72
2021/09/02 13:05:33;;;;;;;2.17;1.35;;;;;;;;;;5035247;28;20031;-72
2021/09/02 13:08:07;;;;;;;2.92;1.70;;;;;;;;;;5036099;28;20499;-72
2021/09/02 13:10:34;;;;;;;2.90;1.50;;;;;;;;;;5035398;28;20354;-72
2021/09/02 13:13:01;;;;;;;2.22;1.38;;;;;;;;;;5047954;28;20025;-72
2021/09/02 13:15:28;;;;;;;2.87;1.70;;;;;;;;;;5034757;28;20032;-72
2021/09/02 13:17:54;;;;;;;3.50;1.70;;;;;;;;;;5033561;28;20100;-72
2021/09/02 13:20:21;;;;;;;4.78;1.70;;;;;;;;;;5035294;28;20500;-72
2021/09/02 13:22:47;;;;;;;2.83;1.58;;;;;;;;;;5034543;28;20021;-72
2021/09/02 13:25:14;;;;;;;2.70;1.33;;;;;;;;;;5035498;28;20073;-72
2021/09/02 13:27:41;;;;;;;2.47;1.65;;;;;;;;;;5034276;28;20104;-72
2021/09/02 13:30:08;;;;;;;3.40;2.20;;;;;;;;;;5031935;28;20031;-72
2021/09/02 13:32:35;;;;;;;2.38;1.45;;;;;;;;;;5033248;28;20354;-72
2021/09/02 13:35:01;;;;;;;2.63;1.38;;;;;;;;;;5039369;28;20037;-72
2021/09/02 13:37:30;;;;;;;2.65;1.70;;;;;;;;;;5034788;28;20026;-72
2021/09/02 13:39:55;;;;;;;3.33;1.60;;;;;;;;;;5034857;28;20433;-72
2021/09/02 13:42:21;;;;;;;9.52;2.20;;;;;;;;;;5045162;28;20098;-72
2021/09/02 13:44:47;;;;;;;5.25;1.80;;;;;;;;;;5034211;28;20507;-72
2021/09/02 13:47:13;;;;;;;4.03;2.00;;;;;;;;;;5035455;28;20025;-72
2021/09/02 13:49:40;;;;;;;3.55;2.20;;;;;;;;;;5035188;28;20096;-72
2021/09/02 13:52:06;;;;;;;2.25;1.65;;;;;;;;;;5039086;28;20484;-72
2021/09/02 13:54:32;;;;;;;2.83;1.42;;;;;;;;;;5046507;28;20378;-72
2021/09/02 13:56:58;;;;;;;3.67;1.92;;;;;;;;;;5032949;28;20036;-72
2021/09/02 13:59:24;;;;;;;3.72;2.22;;;;;;;;;;5034533;28;20162;-72
2021/09/02 14:01:50;;;;;;;3.83;2.03;;;;;;;;;;5034289;28;20033;-72
2021/09/02 14:04:16;;;;;;;4.85;2.10;;;;;;;;;;5030160;28;20026;-72
2021/09/02 14:06:42;;;;;;;3.95;1.98;;;;;;;;;;5046884;28;20025;-72
2021/09/02 14:09:08;;;;;;;4.65;1.90;;;;;;;;;;5031288;28;20040;-72
2021/09/02 14:11:34;;;;;;;4.57;2.15;;;;;;;;;;5032891;28;20032;-72
2021/09/02 14:14:00;;;;;;;6.72;2.35;;;;;;;;;;5033879;28;20030;-72
2021/09/02 14:16:26;;;;;;;3.10;1.88;;;;;;;;;;5033823;28;20053;-72
2021/09/02 14:18:52;;;;;;;3.20;2.10;;;;;;;;;;5034941;28;20025;-72
2021/09/02 14:21:19;;;;;;;2.50;1.48;;;;;;;;;;5029739;28;20083;-72
2021/09/02 14:23:45;;;;;;;3.10;1.83;;;;;;;;;;5032005;28;20121;-72
2021/09/02 14:26:11;;;;;;;2.72;1.80;;;;;;;;;;5032675;28;20075;-71
2021/09/02 14:28:37;;;;;;;3.97;1.90;;;;;;;;;;5032608;28;20037;-72
2021/09/02 14:31:03;;;;;;;5.97;1.98;;;;;;;;;;5032597;28;20106;-72
2021/09/02 14:33:29;;;;;;;4.40;2.28;;;;;;;;;;5032330;28;20910;-72
2021/09/02 14:35:55;;;;;;;3.85;2.28;;;;;;;;;;5031038;28;20034;-72
2021/09/02 14:38:21;;;;;;;6.30;2.67;;;;;;;;;;5033111;28;20446;-71
2021/09/02 14:40:47;;;;;;;4.20;2.13;;;;;;;;;;5030381;28;20073;-72
2021/09/02 14:43:13;;;;;;;2.55;1.70;;;;;;;;;;5031619;28;20024;-72